createdAt,value
2024-02-13T00:00:04.843Z,4.82
2024-02-13T00:03:32.572Z,4.65
2024-02-13T00:06:56.395Z,4.74
2024-02-13T00:10:19.338Z,4.81
2024-02-13T00:13:40.943Z,4.80
2024-02-13T00:17:02.607Z,4.72
2024-02-13T00:20:24.001Z,4.66
2024-02-13T00:23:45.872Z,4.57
2024-02-13T00:27:09.019Z,4.57
2024-02-13T00:30:32.583Z,4.58
2024-02-13T00:33:56.373Z,4.57
2024-02-13T00:37:18.226Z,4.59
2024-02-13T00:40:40.063Z,4.67
2024-02-13T00:44:03.101Z,4.63
2024-02-13T00:47:25.266Z,4.59
2024-02-13T00:50:48.118Z,4.60
2024-02-13T00:54:14.928Z,4.55
2024-02-13T00:57:36.569Z,4.48
2024-02-13T01:00:59.761Z,4.44
2024-02-13T01:04:22.438Z,4.43
2024-02-13T01:07:44.208Z,4.49
2024-02-13T01:11:05.750Z,4.34
2024-02-13T01:14:27.434Z,4.28
2024-02-13T01:17:50.658Z,4.31
2024-02-13T01:21:15.477Z,4.23
2024-02-13T01:24:37.374Z,4.26
2024-02-13T01:27:58.699Z,4.35
2024-02-13T01:31:19.977Z,4.18
2024-02-13T01:34:43.529Z,4.17
2024-02-13T01:38:10.939Z,4.14
2024-02-13T01:41:32.606Z,4.14
2024-02-13T01:44:54.924Z,4.19
2024-02-13T01:48:19.150Z,4.13
2024-02-13T01:51:42.821Z,4.18
2024-02-13T01:55:05.117Z,4.17
2024-02-13T01:58:27.422Z,4.13
2024-02-13T02:01:49.621Z,4.09
2024-02-13T02:05:12.670Z,4.04
2024-02-13T02:08:36.146Z,4.18
2024-02-13T02:11:58.389Z,4.13
2024-02-13T02:15:19.997Z,4.08
2024-02-13T02:18:42.307Z,4.01
2024-02-13T02:22:04.671Z,4.07
2024-02-13T02:25:27.530Z,4.02
2024-02-13T02:28:48.847Z,4.03
2024-02-13T02:32:10.510Z,3.98
2024-02-13T02:35:32.289Z,3.98
2024-02-13T02:38:55.078Z,3.98
2024-02-13T02:42:18.181Z,4.00
2024-02-13T02:45:40.126Z,4.01
2024-02-13T02:49:01.608Z,4.02
2024-02-13T02:52:23.013Z,4.01
2024-02-13T02:55:44.425Z,4.05
2024-02-13T02:59:07.265Z,4.12
2024-02-13T03:02:28.609Z,4.15
2024-02-13T03:05:51.706Z,4.16
2024-02-13T03:09:13.657Z,4.16
2024-02-13T03:12:36.573Z,4.20
2024-02-13T03:15:59.738Z,4.25
2024-02-13T03:19:21.382Z,4.30
2024-02-13T03:22:43.300Z,4.25
2024-02-13T03:26:06.032Z,4.23
2024-02-13T03:29:28.231Z,4.23
2024-02-13T03:32:51.136Z,4.24
2024-02-13T03:36:17.890Z,4.24
2024-02-13T03:39:39.802Z,4.24
2024-02-13T03:43:01.398Z,4.17
2024-02-13T03:46:22.842Z,4.20
2024-02-13T03:49:45.676Z,4.20
2024-02-13T03:53:07.537Z,4.22
2024-02-13T03:56:28.996Z,4.16
2024-02-13T03:59:50.365Z,4.14
2024-02-13T04:03:12.555Z,4.18
2024-02-13T04:06:36.415Z,4.14
2024-02-13T04:09:58.092Z,4.19
2024-02-13T04:13:19.394Z,4.16
2024-02-13T04:16:40.942Z,4.15
2024-02-13T04:20:04.397Z,4.10
2024-02-13T04:23:28.482Z,4.15
2024-02-13T04:26:51.673Z,4.10
2024-02-13T04:30:14.131Z,4.12
2024-02-13T04:33:35.563Z,4.15
2024-02-13T04:36:57.280Z,4.16
2024-02-13T04:40:20.568Z,4.20
2024-02-13T04:43:44.469Z,4.17
2024-02-13T04:47:06.713Z,4.17
2024-02-13T04:50:29.130Z,4.22
2024-02-13T04:53:51.006Z,4.18
2024-02-13T04:57:14.237Z,4.20
2024-02-13T05:00:38.276Z,4.26
2024-02-13T05:04:22.790Z,4.26
2024-02-13T05:07:46.064Z,4.10
2024-02-13T05:11:08.241Z,4.16
2024-02-13T05:14:31.876Z,4.07
2024-02-13T05:17:53.572Z,4.07
2024-02-13T05:21:16.880Z,4.05
2024-02-13T05:24:40.286Z,3.98
2024-02-13T05:28:01.810Z,3.99
2024-02-13T05:31:24.524Z,4.03
2024-02-13T05:34:45.997Z,4.05
2024-02-13T05:38:07.992Z,4.06
2024-02-13T05:41:29.341Z,4.09
2024-02-13T05:44:51.470Z,4.09
2024-02-13T05:48:15.011Z,4.11
2024-02-13T05:51:36.665Z,4.03
2024-02-13T05:54:59.379Z,3.97
2024-02-13T05:58:21.880Z,3.92
2024-02-13T06:01:43.819Z,3.88
2024-02-13T06:05:08.021Z,3.88
2024-02-13T06:08:29.641Z,3.82
2024-02-13T06:11:51.461Z,3.79
2024-02-13T06:15:13.483Z,3.76
2024-02-13T06:18:35.001Z,3.78
2024-02-13T06:21:58.027Z,3.84
2024-02-13T06:25:19.456Z,3.76
2024-02-13T06:28:41.392Z,3.85
2024-02-13T06:32:03.275Z,3.95
2024-02-13T06:35:24.829Z,3.94
2024-02-13T06:38:47.526Z,3.93
2024-02-13T06:42:09.478Z,3.95
2024-02-13T06:45:31.906Z,3.99
2024-02-13T06:48:55.075Z,4.14
2024-02-13T06:52:16.520Z,4.30
2024-02-13T06:55:39.145Z,4.36
2024-02-13T06:59:00.414Z,4.35
2024-02-13T07:02:21.719Z,4.41
2024-02-13T07:05:43.072Z,4.32
2024-02-13T07:09:06.521Z,4.38
2024-02-13T07:12:30.166Z,4.47
2024-02-13T07:15:51.741Z,4.47
2024-02-13T07:19:13.662Z,4.35
2024-02-13T07:22:35.175Z,4.22
2024-02-13T07:25:56.381Z,4.25
2024-02-13T07:29:20.255Z,4.20
2024-02-13T07:32:41.996Z,4.28
2024-02-13T07:36:03.819Z,4.30
2024-02-13T07:39:25.555Z,4.25
2024-02-13T07:42:46.925Z,4.30
2024-02-13T07:46:10.852Z,4.17
2024-02-13T07:49:33.591Z,4.11
2024-02-13T07:52:55.626Z,4.07
2024-02-13T07:56:19.829Z,4.20
2024-02-13T07:59:41.571Z,4.23
2024-02-13T08:03:05.009Z,4.26
2024-02-13T08:06:26.652Z,4.28
2024-02-13T08:09:48.567Z,4.39
2024-02-13T08:13:10.722Z,4.47
2024-02-13T08:16:32.198Z,4.59
2024-02-13T08:19:55.365Z,4.57
2024-02-13T08:23:17.000Z,4.70
2024-02-13T08:26:39.158Z,4.84
2024-02-13T08:30:00.912Z,4.73
2024-02-13T08:33:22.820Z,4.73
2024-02-13T08:36:46.413Z,4.77
2024-02-13T08:40:08.951Z,4.80
2024-02-13T08:43:30.249Z,4.91
2024-02-13T08:46:51.614Z,4.86
2024-02-13T08:50:14.209Z,4.84
2024-02-13T08:53:37.277Z,4.84
2024-02-13T08:56:59.145Z,4.88
2024-02-13T09:00:21.664Z,4.91
2024-02-13T09:03:43.736Z,4.97
2024-02-13T09:07:05.747Z,5.03
2024-02-13T09:10:28.651Z,5.17
2024-02-13T09:13:50.171Z,5.20
2024-02-13T09:17:11.953Z,5.26
2024-02-13T09:20:33.719Z,5.13
2024-02-13T09:23:55.658Z,5.14
2024-02-13T09:27:19.629Z,5.18
2024-02-13T09:30:41.196Z,5.20
2024-02-13T09:34:03.149Z,5.19
2024-02-13T09:37:26.606Z,5.30
2024-02-13T09:40:48.967Z,5.22
2024-02-13T09:44:13.992Z,5.25
2024-02-13T09:47:35.966Z,5.41
2024-02-13T09:50:59.534Z,5.38
2024-02-13T09:54:22.711Z,5.53
2024-02-13T09:57:44.175Z,5.43
2024-02-13T10:01:08.825Z,5.45
2024-02-13T10:04:31.073Z,5.55
2024-02-13T10:07:52.808Z,5.56
2024-02-13T10:11:16.658Z,5.60
2024-02-13T10:14:38.335Z,5.65
2024-02-13T10:18:02.343Z,5.68
2024-02-13T10:21:27.677Z,5.73
2024-02-13T10:24:55.520Z,5.79
2024-02-13T10:28:20.614Z,5.89
2024-02-13T10:31:43.829Z,5.97
2024-02-13T10:35:10.790Z,6.06
2024-02-13T10:38:34.744Z,6.13
2024-02-13T10:41:59.424Z,6.19
2024-02-13T10:45:24.303Z,6.28
2024-02-13T10:48:53.207Z,6.40
2024-02-13T10:52:16.482Z,6.34
2024-02-13T10:55:41.995Z,6.42
2024-02-13T10:59:05.102Z,6.54
2024-02-13T11:02:27.906Z,6.66
2024-02-13T11:05:49.635Z,6.66
2024-02-13T11:09:14.377Z,6.62
2024-02-13T11:12:37.212Z,6.62
2024-02-13T11:15:59.197Z,6.54
2024-02-13T11:19:22.083Z,6.60
2024-02-13T11:22:52.505Z,6.70
2024-02-13T11:26:20.201Z,6.76
2024-02-13T11:29:42.593Z,6.90
2024-02-13T11:33:07.435Z,6.97
2024-02-13T11:36:30.838Z,6.93
2024-02-13T11:39:53.021Z,6.97
2024-02-13T11:43:25.290Z,6.88
2024-02-13T11:46:53.574Z,6.93
2024-02-13T11:50:15.580Z,6.94
2024-02-13T11:53:37.138Z,6.91
2024-02-13T11:56:58.492Z,6.87
2024-02-13T12:00:22.840Z,6.91
2024-02-13T12:03:44.550Z,6.95
2024-02-13T12:07:07.394Z,6.97
2024-02-13T12:10:29.340Z,6.99
2024-02-13T12:13:51.867Z,7.10
2024-02-13T12:17:15.439Z,7.15
2024-02-13T12:20:37.086Z,7.17
2024-02-13T12:24:02.590Z,7.05
2024-02-13T12:27:25.584Z,7.17
2024-02-13T12:30:48.756Z,7.20
2024-02-13T12:34:11.929Z,7.18
2024-02-13T12:37:33.301Z,7.15
2024-02-13T12:40:56.644Z,7.23
2024-02-13T12:44:18.515Z,7.36
2024-02-13T12:47:40.688Z,7.37
2024-02-13T12:51:05.638Z,7.44
2024-02-13T12:54:28.905Z,7.47
2024-02-13T12:57:51.436Z,7.50
2024-02-13T13:01:13.059Z,7.39
2024-02-13T13:04:34.717Z,7.46
2024-02-13T13:08:00.569Z,7.49
2024-02-13T13:11:23.634Z,7.49
2024-02-13T13:14:47.969Z,7.46
2024-02-13T13:18:15.815Z,7.48
2024-02-13T13:21:41.141Z,7.48
2024-02-13T13:25:10.819Z,7.51
2024-02-13T13:28:33.383Z,7.63
2024-02-13T13:31:54.990Z,7.66
2024-02-13T13:35:21.308Z,7.75
2024-02-13T13:38:44.429Z,7.85
2024-02-13T13:42:10.861Z,7.82
2024-02-13T13:45:32.514Z,7.74
2024-02-13T13:48:54.044Z,7.85
2024-02-13T13:52:15.865Z,7.99
2024-02-13T13:55:37.479Z,7.95
2024-02-13T13:59:00.521Z,7.84
2024-02-13T14:02:22.002Z,7.84
2024-02-13T14:05:45.292Z,7.90
2024-02-13T14:09:08.991Z,7.91
2024-02-13T14:12:30.961Z,7.92
2024-02-13T14:15:53.799Z,7.94
2024-02-13T14:19:15.351Z,7.79
2024-02-13T14:22:38.408Z,7.70
2024-02-13T14:25:59.928Z,7.75
2024-02-13T14:29:21.309Z,7.77
2024-02-13T14:32:45.054Z,7.82
2024-02-13T14:36:07.049Z,7.89
2024-02-13T14:39:29.225Z,7.92
2024-02-13T14:42:51.119Z,7.85
2024-02-13T14:46:12.941Z,7.78
2024-02-13T14:49:36.047Z,7.82
2024-02-13T14:52:57.805Z,7.93
2024-02-13T14:56:20.427Z,7.79
2024-02-13T14:59:41.978Z,7.75
2024-02-13T15:03:03.739Z,7.82
2024-02-13T15:06:26.308Z,7.86
2024-02-13T15:09:49.443Z,7.93
2024-02-13T15:13:12.808Z,8.01
2024-02-13T15:16:34.386Z,7.91
2024-02-13T15:19:56.708Z,7.99
2024-02-13T15:23:20.271Z,8.08
2024-02-13T15:26:41.718Z,8.07
2024-02-13T15:30:05.940Z,8.04
2024-02-13T15:33:27.399Z,7.89
2024-02-13T15:37:02.590Z,8.00
2024-02-13T15:40:43.195Z,7.95
2024-02-13T15:44:22.128Z,7.80
2024-02-13T15:47:44.294Z,7.80
2024-02-13T15:51:07.383Z,7.84
2024-02-13T15:54:31.914Z,7.63
2024-02-13T15:57:54.562Z,7.68
2024-02-13T16:01:18.474Z,7.67
2024-02-13T16:04:40.492Z,7.60
2024-02-13T16:08:02.194Z,7.65
2024-02-13T16:11:23.625Z,7.63
2024-02-13T16:14:47.827Z,7.74
2024-02-13T16:18:10.072Z,7.58
2024-02-13T16:21:31.896Z,7.55
2024-02-13T16:24:54.817Z,7.52
2024-02-13T16:28:16.640Z,7.55
2024-02-13T16:31:39.683Z,7.47
2024-02-13T16:35:01.065Z,7.47
2024-02-13T16:38:22.696Z,7.45
2024-02-13T16:41:45.495Z,7.35
2024-02-13T16:45:08.241Z,7.33
2024-02-13T16:48:31.115Z,7.28
2024-02-13T16:51:53.247Z,7.23
2024-02-13T16:55:16.002Z,7.13
2024-02-13T16:58:38.043Z,7.07
2024-02-13T17:01:59.589Z,7.02
2024-02-13T17:05:23.600Z,6.92
2024-02-13T17:08:47.423Z,6.91
2024-02-13T17:12:09.532Z,6.89
2024-02-13T17:15:31.307Z,6.74
2024-02-13T17:18:52.665Z,6.75
2024-02-13T17:22:15.883Z,6.73
2024-02-13T17:25:37.636Z,6.76
2024-02-13T17:29:00.239Z,6.71
2024-02-13T17:32:23.191Z,6.70
2024-02-13T17:35:44.874Z,6.64
2024-02-13T17:39:10.835Z,6.62
2024-02-13T17:42:34.118Z,6.59
2024-02-13T17:45:55.880Z,6.56
2024-02-13T17:49:18.024Z,6.52
2024-02-13T17:52:39.985Z,6.45
2024-02-13T17:56:03.128Z,6.38
2024-02-13T17:59:25.329Z,6.33
2024-02-13T18:02:46.683Z,6.30
2024-02-13T18:06:08.771Z,6.23
2024-02-13T18:09:30.083Z,6.16
2024-02-13T18:12:53.087Z,6.13
2024-02-13T18:16:14.414Z,6.12
2024-02-13T18:19:35.739Z,6.10
2024-02-13T18:22:58.234Z,6.14
2024-02-13T18:26:22.984Z,6.13
2024-02-13T18:29:46.479Z,6.14
2024-02-13T18:33:09.148Z,6.10
2024-02-13T18:36:33.504Z,6.08
2024-02-13T18:39:54.788Z,5.86
2024-02-13T18:43:16.227Z,5.91
2024-02-13T18:46:43.130Z,5.99
2024-02-13T18:50:05.519Z,5.93
2024-02-13T18:53:31.502Z,6.02
2024-02-13T18:56:54.132Z,5.97
2024-02-13T19:00:17.341Z,5.89
2024-02-13T19:03:40.318Z,5.89
2024-02-13T19:07:01.875Z,5.96
2024-02-13T19:10:23.476Z,5.85
2024-02-13T19:13:45.375Z,5.89
2024-02-13T19:17:07.443Z,5.80
2024-02-13T19:20:30.387Z,5.77
2024-02-13T19:23:51.938Z,5.73
2024-02-13T19:27:13.866Z,5.83
2024-02-13T19:30:36.373Z,5.84
2024-02-13T19:33:57.884Z,5.84
2024-02-13T19:37:21.047Z,5.73
2024-02-13T19:40:43.161Z,5.74
2024-02-13T19:44:04.979Z,5.79
2024-02-13T19:47:26.520Z,5.65
2024-02-13T19:50:48.470Z,5.70
2024-02-13T19:54:11.893Z,5.68
2024-02-13T19:57:33.820Z,5.76
2024-02-13T20:00:56.120Z,5.73
2024-02-13T20:04:18.264Z,5.70
2024-02-13T20:07:39.923Z,5.72
2024-02-13T20:11:04.907Z,5.59
2024-02-13T20:14:26.816Z,5.61
2024-02-13T20:17:48.658Z,5.60
2024-02-13T20:21:11.396Z,5.56
2024-02-13T20:24:33.892Z,5.52
2024-02-13T20:27:58.392Z,5.46
2024-02-13T20:31:20.471Z,5.41
2024-02-13T20:34:42.932Z,5.32
2024-02-13T20:38:05.392Z,5.22
2024-02-13T20:41:26.582Z,5.14
2024-02-13T20:44:51.537Z,5.05
2024-02-13T20:48:13.188Z,4.96
2024-02-13T20:51:36.593Z,4.84
2024-02-13T20:54:58.268Z,4.75
2024-02-13T20:58:19.711Z,4.68
2024-02-13T21:01:43.485Z,4.59
2024-02-13T21:05:06.161Z,4.49
2024-02-13T21:08:27.652Z,4.45
2024-02-13T21:11:49.587Z,4.39
2024-02-13T21:15:13.727Z,4.31
2024-02-13T21:18:36.775Z,4.24
2024-02-13T21:22:15.693Z,4.16
2024-02-13T21:25:37.253Z,4.16
2024-02-13T21:28:59.589Z,4.10
2024-02-13T21:32:22.317Z,4.05
2024-02-13T21:35:45.186Z,3.95
2024-02-13T21:39:09.068Z,3.90
2024-02-13T21:42:31.266Z,3.71
2024-02-13T21:45:53.169Z,3.67
2024-02-13T21:49:14.690Z,3.57
2024-02-13T21:52:37.782Z,3.48
2024-02-13T21:55:59.058Z,3.48
2024-02-13T21:59:21.055Z,3.48
2024-02-13T22:02:42.757Z,3.47
2024-02-13T22:06:04.427Z,3.45
2024-02-13T22:09:28.052Z,3.42
2024-02-13T22:12:49.575Z,3.35
2024-02-13T22:16:10.938Z,3.28
2024-02-13T22:19:32.327Z,3.28
2024-02-13T22:22:53.880Z,3.25
2024-02-13T22:26:16.388Z,3.12
2024-02-13T22:29:37.716Z,3.10
2024-02-13T22:33:00.716Z,3.02
2024-02-13T22:36:23.961Z,2.97
2024-02-13T22:39:45.516Z,2.93
2024-02-13T22:43:08.399Z,2.89
2024-02-13T22:46:29.589Z,2.82
2024-02-13T22:49:50.972Z,2.72
2024-02-13T22:53:12.258Z,2.63
2024-02-13T22:56:33.589Z,2.55
2024-02-13T22:59:58.478Z,2.47
2024-02-13T23:03:20.534Z,2.43
2024-02-13T23:06:42.939Z,2.44
2024-02-13T23:10:05.173Z,2.46
2024-02-13T23:13:32.414Z,2.46
2024-02-13T23:17:00.089Z,2.46
2024-02-13T23:20:22.388Z,2.45
2024-02-13T23:23:43.728Z,2.44
2024-02-13T23:27:05.290Z,2.41
2024-02-13T23:30:28.229Z,2.40
2024-02-13T23:33:51.268Z,2.38
2024-02-13T23:37:12.953Z,2.34
2024-02-13T23:40:34.437Z,2.33
2024-02-13T23:43:55.753Z,2.30
2024-02-13T23:47:17.807Z,2.29
2024-02-13T23:50:40.647Z,2.28
2024-02-13T23:54:01.941Z,2.31
2024-02-13T23:57:23.546Z,2.33
